Time;durP1;ratioP1;P1;durP2;ratioP2;P2;SDS_P1;SDS_P2;PMS_P1;PMS_P2;Temp;Humidity;BMP_temperature;BMP_pressure;BME280_temperature;BME280_humidity;BME280_pressure;Samples;Min_cycle;Max_cycle;Signal;HPM_P1;HPM_P2
2021/06/05 00:01:34;;;;;;;3.93;2.43;;;19.20;87.90;;;;;;5041627;28;20465;-44
2021/06/05 00:04:03;;;;;;;3.67;2.73;;;19.20;87.60;;;;;;5037733;28;20481;-44
2021/06/05 00:06:32;;;;;;;5.43;2.40;;;19.20;87.50;;;;;;5044256;28;20473;-44
2021/06/05 00:09:00;;;;;;;4.50;3.03;;;19.10;87.70;;;;;;5043935;28;20479;-45
2021/06/05 00:11:30;;;;;;;4.13;2.90;;;19.10;87.70;;;;;;5044045;28;20494;-44
2021/06/05 00:14:02;;;;;;;4.83;2.80;;;19.00;87.70;;;;;;5047307;28;20489;-44
2021/06/05 00:16:39;;;;;;;4.00;3.40;;;19.00;87.50;;;;;;5043121;28;20834;-44
2021/06/05 00:19:09;;;;;;;3.97;3.60;;;19.00;87.10;;;;;;5044982;28;20803;-44
2021/06/05 00:21:37;;;;;;;5.50;3.43;;;19.00;87.50;;;;;;5045986;28;20455;-44
2021/06/05 00:24:07;;;;;;;5.40;3.63;;;19.00;87.50;;;;;;5041525;28;20478;-44
2021/06/05 00:26:36;;;;;;;8.20;3.93;;;18.90;87.50;;;;;;5046028;28;20456;-44
2021/06/05 00:29:04;;;;;;;4.83;3.03;;;18.90;87.50;;;;;;5044304;28;20848;-45
2021/06/05 00:31:33;;;;;;;4.90;2.83;;;18.90;87.50;;;;;;5046485;28;20496;-44
2021/06/05 00:34:01;;;;;;;4.10;3.37;;;18.90;87.50;;;;;;5042733;28;20991;-44
2021/06/05 00:36:29;;;;;;;3.03;2.63;;;18.90;87.70;;;;;;5042540;28;20454;-44
2021/06/05 00:38:57;;;;;;;4.17;2.87;;;18.80;87.80;;;;;;5042730;28;20455;-44
2021/06/05 00:41:27;;;;;;;3.80;3.50;;;18.80;87.90;;;;;;5041317;28;21026;-44
2021/06/05 00:44:00;;;;;;;6.97;3.70;;;18.80;87.90;;;;;;5044157;28;20467;-44
2021/06/05 00:46:30;;;;;;;4.00;3.30;;;18.80;88.10;;;;;;5042626;28;20450;-44
2021/06/05 00:49:00;;;;;;;5.57;3.10;;;18.80;88.00;;;;;;5038955;28;20920;-44
2021/06/05 00:51:45;;;;;;;5.83;3.90;;;18.80;88.00;;;;;;5041830;28;20501;-44
2021/06/05 00:54:15;;;;;;;5.57;4.13;;;18.80;88.10;;;;;;5040675;28;20460;-44
2021/06/05 00:56:52;;;;;;;5.37;4.10;;;18.80;88.10;;;;;;5039607;28;20463;-44
2021/06/05 00:59:21;;;;;;;4.07;3.77;;;18.80;88.10;;;;;;5040500;28;21280;-44
2021/06/05 01:01:50;;;;;;;4.90;4.40;;;18.70;88.10;;;;;;5044664;28;20462;-44
2021/06/05 01:04:18;;;;;;;10.83;4.40;;;18.70;88.10;;;;;;5042679;28;20919;-44
2021/06/05 01:06:58;;;;;;;7.13;3.90;;;18.70;88.10;;;;;;5039846;28;20471;-44
2021/06/05 01:10:02;;;;;;;5.20;4.20;;;18.60;88.00;;;;;;5047197;28;20496;-44
2021/06/05 01:13:04;;;;;;;6.33;3.90;;;18.60;88.00;;;;;;5043978;28;20486;-44
2021/06/05 01:15:55;;;;;;;5.77;4.37;;;18.70;87.90;;;;;;5036845;28;20470;-44
2021/06/05 01:18:36;;;;;;;4.20;3.80;;;18.60;87.90;;;;;;5042659;28;20457;-44
2021/06/05 01:21:46;;;;;;;5.90;4.10;;;18.60;88.00;;;;;;5038429;28;20465;-44
2021/06/05 01:24:23;;;;;;;4.83;3.70;;;18.60;87.80;;;;;;5042098;28;20458;-44
2021/06/05 01:27:02;;;;;;;5.63;3.40;;;18.60;87.70;;;;;;5040788;28;20493;-44
2021/06/05 01:29:35;;;;;;;3.50;3.20;;;18.50;87.80;;;;;;5044255;28;21228;-44
2021/06/05 01:32:07;;;;;;;4.10;3.30;;;18.50;87.90;;;;;;5044351;28;20481;-45
2021/06/05 01:34:41;;;;;;;3.67;3.07;;;18.50;87.90;;;;;;5043718;28;20458;-44
2021/06/05 01:37:12;;;;;;;3.50;3.00;;;18.40;88.10;;;;;;5041140;28;20482;-44
2021/06/05 01:39:43;;;;;;;3.30;3.00;;;18.40;88.10;;;;;;5041496;28;20458;-44
2021/06/05 01:42:16;;;;;;;3.57;3.27;;;18.40;88.00;;;;;;5041102;28;21051;-44
2021/06/05 01:44:48;;;;;;;5.00;3.47;;;18.30;87.90;;;;;;5041236;28;20485;-44
2021/06/05 01:47:17;;;;;;;6.90;3.40;;;18.30;87.80;;;;;;5040163;28;20797;-44
2021/06/05 01:49:47;;;;;;;4.07;3.50;;;18.30;87.90;;;;;;5040912;28;20458;-44
2021/06/05 01:52:22;;;;;;;4.00;3.03;;;18.30;88.00;;;;;;5037225;28;20518;-44
2021/06/05 01:55:00;;;;;;;3.93;3.43;;;18.30;88.10;;;;;;5043381;28;20839;-44
2021/06/05 01:57:35;;;;;;;3.80;3.20;;;18.30;88.10;;;;;;5044122;28;20458;-45
2021/06/05 02:00:17;;;;;;;4.50;3.97;;;18.30;88.00;;;;;;5041105;28;20442;-44
2021/06/05 02:02:45;;;;;;;3.73;3.40;;;18.20;88.10;;;;;;5042670;28;20969;-44
2021/06/05 02:05:13;;;;;;;4.30;3.50;;;18.30;88.00;;;;;;5042663;28;20462;-44
2021/06/05 02:07:41;;;;;;;3.93;3.23;;;18.20;88.10;;;;;;5042041;28;20545;-44
2021/06/05 02:10:12;;;;;;;4.53;4.13;;;18.20;88.20;;;;;;5042106;28;20454;-45
2021/06/05 02:12:42;;;;;;;7.10;3.63;;;18.20;88.30;;;;;;5044209;28;20486;-44
2021/06/05 02:15:19;;;;;;;3.77;3.47;;;18.20;88.30;;;;;;5040952;28;20461;-44
2021/06/05 02:17:48;;;;;;;4.53;3.83;;;18.20;88.40;;;;;;5043178;28;20446;-44
2021/06/05 02:20:27;;;;;;;5.43;4.13;;;18.20;88.40;;;;;;5042007;28;20462;-44
2021/06/05 02:22:58;;;;;;;5.77;3.77;;;18.10;88.30;;;;;;5038158;28;20458;-44
2021/06/05 02:25:28;;;;;;;5.27;4.27;;;18.10;88.30;;;;;;5042569;28;20546;-45
2021/06/05 02:28:00;;;;;;;4.63;4.20;;;18.10;88.30;;;;;;5048468;28;20469;-45
2021/06/05 02:30:30;;;;;;;4.27;3.87;;;18.10;88.40;;;;;;5045956;28;20458;-45
2021/06/05 02:33:00;;;;;;;4.73;4.33;;;18.10;88.40;;;;;;5047611;28;20490;-45
2021/06/05 02:35:36;;;;;;;4.27;3.87;;;18.10;88.40;;;;;;5047776;28;20524;-45
2021/06/05 02:38:05;;;;;;;4.10;3.30;;;18.00;88.50;;;;;;5043215;28;20450;-45
2021/06/05 02:40:35;;;;;;;4.50;3.63;;;18.00;88.40;;;;;;5044285;28;20454;-45
2021/06/05 02:43:07;;;;;;;7.13;3.93;;;18.00;88.30;;;;;;5042858;28;20830;-45
2021/06/05 02:45:41;;;;;;;4.10;3.70;;;18.00;88.30;;;;;;5044925;28;20459;-45
2021/06/05 02:48:10;;;;;;;6.03;5.00;;;18.00;88.30;;;;;;5044476;28;20472;-45
2021/06/05 02:50:41;;;;;;;5.07;4.50;;;18.00;88.40;;;;;;5042849;28;20467;-45
2021/06/05 02:53:10;;;;;;;5.40;4.90;;;18.00;88.50;;;;;;5043688;28;20486;-45
2021/06/05 02:55:38;;;;;;;9.83;4.23;;;18.00;88.60;;;;;;5045534;28;20498;-45
2021/06/05 02:58:07;;;;;;;4.90;4.10;;;18.00;88.60;;;;;;5043239;28;20962;-46
2021/06/05 03:00:45;;;;;;;7.67;4.70;;;18.00;88.60;;;;;;5044864;28;20458;-45
2021/06/05 03:03:16;;;;;;;4.43;3.93;;;18.00;88.60;;;;;;5046117;28;20454;-45
2021/06/05 03:05:45;;;;;;;4.73;3.70;;;18.00;88.60;;;;;;5042215;28;20935;-45
2021/06/05 03:08:16;;;;;;;5.00;4.40;;;18.00;88.70;;;;;;5046155;28;20505;-45
2021/06/05 03:10:44;;;;;;;5.10;4.10;;;18.00;88.90;;;;;;5046006;28;20460;-45
2021/06/05 03:13:12;;;;;;;5.10;4.60;;;18.00;88.90;;;;;;5045316;28;20497;-45
2021/06/05 03:15:43;;;;;;;4.90;4.30;;;18.00;88.90;;;;;;5047019;28;20462;-45
2021/06/05 03:18:14;;;;;;;6.73;5.40;;;18.00;89.00;;;;;;5041543;28;20827;-45
2021/06/05 03:20:45;;;;;;;5.33;4.83;;;18.00;89.00;;;;;;5046269;28;20450;-45
2021/06/05 03:23:15;;;;;;;7.20;5.60;;;18.00;89.00;;;;;;5045541;28;20827;-45
2021/06/05 03:25:44;;;;;;;5.37;4.83;;;17.90;89.00;;;;;;5043296;28;20471;-45
2021/06/05 03:28:14;;;;;;;5.37;3.93;;;17.90;89.00;;;;;;5046307;28;20470;-45
2021/06/05 03:30:42;;;;;;;5.93;5.33;;;17.90;89.00;;;;;;5045370;28;20802;-45
2021/06/05 03:33:10;;;;;;;5.00;4.50;;;17.90;88.70;;;;;;5045448;28;20493;-45
2021/06/05 03:35:38;;;;;;;7.43;5.23;;;17.90;88.60;;;;;;5043051;28;20447;-45
2021/06/05 03:38:07;;;;;;;7.50;5.23;;;17.90;88.60;;;;;;5043679;28;20927;-45
2021/06/05 03:40:36;;;;;;;5.70;5.10;;;17.90;88.70;;;;;;5042256;28;20463;-46
2021/06/05 03:43:04;;;;;;;5.60;5.03;;;17.90;88.80;;;;;;5042492;28;20470;-45
2021/06/05 03:45:32;;;;;;;6.30;5.03;;;17.90;88.90;;;;;;5049526;28;20553;-45
2021/06/05 03:48:01;;;;;;;6.80;4.40;;;17.90;88.90;;;;;;5043052;28;20463;-45
2021/06/05 03:50:33;;;;;;;6.67;4.23;;;17.90;88.90;;;;;;5048035;28;20926;-45
2021/06/05 03:53:01;;;;;;;5.17;4.67;;;17.90;88.90;;;;;;5047511;28;20490;-46
2021/06/05 03:55:29;;;;;;;4.70;4.30;;;17.90;88.90;;;;;;5046721;28;20474;-45
2021/06/05 03:57:59;;;;;;;8.03;4.70;;;17.90;88.90;;;;;;5043256;28;20460;-45
2021/06/05 04:00:33;;;;;;;5.90;5.00;;;17.90;88.90;;;;;;5043672;28;20465;-45
2021/06/05 04:03:02;;;;;;;4.23;3.83;;;17.90;88.90;;;;;;5046893;28;20470;-45
2021/06/05 04:05:33;;;;;;;6.10;4.83;;;17.90;88.90;;;;;;5041157;28;20954;-45
2021/06/05 04:08:01;;;;;;;5.40;4.70;;;17.90;88.90;;;;;;5041457;28;20509;-45
2021/06/05 04:10:30;;;;;;;4.83;4.33;;;18.00;88.90;;;;;;5045594;28;20493;-45
2021/06/05 04:12:58;;;;;;;5.93;5.07;;;18.00;88.90;;;;;;5041172;28;20498;-45
2021/06/05 04:15:29;;;;;;;5.77;4.23;;;18.00;88.70;;;;;;5046569;28;20446;-46
2021/06/05 04:18:20;;;;;;;7.73;4.47;;;18.10;88.70;;;;;;5041620;28;20460;-45
2021/06/05 04:20:48;;;;;;;4.90;3.80;;;18.10;88.60;;;;;;5043952;28;20461;-46
2021/06/05 04:23:17;;;;;;;5.03;4.40;;;18.10;88.60;;;;;;5039806;28;20517;-45
2021/06/05 04:25:46;;;;;;;5.53;3.83;;;18.10;88.60;;;;;;5041811;28;20454;-45
2021/06/05 04:28:16;;;;;;;5.07;4.00;;;18.10;88.60;;;;;;5043404;28;20463;-45
2021/06/05 04:30:45;;;;;;;7.43;5.20;;;18.20;88.60;;;;;;5045236;28;22041;-45
2021/06/05 04:33:17;;;;;;;6.90;4.43;;;18.20;88.50;;;;;;5041103;28;20486;-45
2021/06/05 04:35:45;;;;;;;4.80;4.17;;;18.20;88.50;;;;;;5043365;28;20465;-45
2021/06/05 04:38:15;;;;;;;5.33;4.03;;;18.20;88.60;;;;;;5042248;28;20554;-45
2021/06/05 04:40:44;;;;;;;13.50;4.63;;;18.30;88.40;;;;;;5045112;28;20462;-46
2021/06/05 04:43:14;;;;;;;4.77;4.23;;;18.30;88.10;;;;;;5046422;28;20494;-45
2021/06/05 04:45:44;;;;;;;7.13;4.60;;;18.30;88.20;;;;;;5041733;28;20479;-45
2021/06/05 04:48:13;;;;;;;4.90;4.43;;;18.20;88.40;;;;;;5046568;28;20458;-45
2021/06/05 04:50:42;;;;;;;6.13;4.43;;;18.20;88.50;;;;;;5042949;28;20454;-45
2021/06/05 04:53:13;;;;;;;5.30;4.67;;;18.20;88.60;;;;;;5043358;28;20478;-46
2021/06/05 04:55:43;;;;;;;7.20;4.80;;;18.20;88.70;;;;;;5043314;28;20454;-45
2021/06/05 04:58:12;;;;;;;5.77;4.87;;;18.30;88.80;;;;;;5044671;28;20534;-46
2021/06/05 05:00:43;;;;;;;5.80;5.20;;;18.30;88.80;;;;;;5039490;28;20454;-45
2021/06/05 05:03:15;;;;;;;6.07;5.57;;;18.30;88.90;;;;;;5043441;28;20465;-45
2021/06/05 05:05:43;;;;;;;5.50;5.00;;;18.40;88.80;;;;;;5044676;28;20466;-45
2021/06/05 05:08:13;;;;;;;6.47;5.87;;;18.40;88.70;;;;;;5043492;28;20553;-45
2021/06/05 05:10:44;;;;;;;6.97;5.90;;;18.40;88.70;;;;;;5043446;28;20454;-45
2021/06/05 05:13:17;;;;;;;5.47;4.97;;;18.40;88.60;;;;;;5043093;28;20490;-45
2021/06/05 05:15:45;;;;;;;6.80;5.87;;;18.50;88.50;;;;;;5045193;28;20455;-45
2021/06/05 05:18:13;;;;;;;6.03;5.50;;;18.50;88.50;;;;;;5040440;28;20456;-45
2021/06/05 05:20:43;;;;;;;7.17;5.20;;;18.60;88.40;;;;;;5041578;28;20462;-45
2021/06/05 05:23:12;;;;;;;5.87;5.37;;;18.50;88.50;;;;;;5042164;28;20467;-45
2021/06/05 05:25:42;;;;;;;6.53;5.37;;;18.60;88.40;;;;;;5040903;28;20451;-45
2021/06/05 05:28:12;;;;;;;8.33;5.73;;;18.60;88.40;;;;;;5040819;28;20458;-45
2021/06/05 05:30:44;;;;;;;7.13;5.70;;;18.70;88.30;;;;;;5040996;28;20466;-45
2021/06/05 05:33:12;;;;;;;6.03;5.53;;;18.70;88.30;;;;;;5038980;28;20491;-45
2021/06/05 05:35:41;;;;;;;5.90;5.30;;;18.60;88.40;;;;;;5040713;28;20947;-45
2021/06/05 05:38:10;;;;;;;7.83;5.60;;;18.60;88.40;;;;;;5042336;28;20454;-46
2021/06/05 05:40:41;;;;;;;6.07;5.20;;;18.60;88.40;;;;;;5038357;28;20779;-46
2021/06/05 05:43:10;;;;;;;6.93;5.07;;;18.60;88.50;;;;;;5041643;28;20957;-46
2021/06/05 05:45:38;;;;;;;6.13;5.27;;;18.60;88.50;;;;;;5041325;28;20455;-45
2021/06/05 05:48:08;;;;;;;4.80;4.30;;;18.60;88.40;;;;;;5040580;28;20453;-46
2021/06/05 05:50:40;;;;;;;5.50;5.10;;;18.70;88.10;;;;;;5040235;28;20485;-46
2021/06/05 05:53:08;;;;;;;5.57;5.00;;;18.70;88.10;;;;;;5044141;28;20491;-46
2021/06/05 05:55:36;;;;;;;5.70;5.17;;;18.70;88.00;;;;;;5038181;28;20955;-46
2021/06/05 05:58:13;;;;;;;5.70;5.07;;;18.80;87.80;;;;;;5041486;28;20467;-46
2021/06/05 06:00:43;;;;;;;6.40;5.80;;;18.80;87.80;;;;;;5041004;28;20457;-46
2021/06/05 06:03:12;;;;;;;7.77;5.97;;;18.80;87.60;;;;;;5044901;28;20471;-46
2021/06/05 06:05:41;;;;;;;8.40;6.57;;;18.80;87.70;;;;;;5047605;28;20504;-46
2021/06/05 06:08:11;;;;;;;6.53;5.80;;;18.80;87.80;;;;;;5043833;28;21013;-46
2021/06/05 06:10:40;;;;;;;6.90;5.93;;;18.80;87.80;;;;;;5046846;28;20462;-46
2021/06/05 06:13:09;;;;;;;6.20;5.10;;;18.90;87.50;;;;;;5044812;28;20486;-46
2021/06/05 06:15:38;;;;;;;8.07;5.70;;;19.00;87.50;;;;;;5046508;28;20469;-46
2021/06/05 06:18:11;;;;;;;7.40;6.20;;;19.00;87.30;;;;;;5045216;28;20454;-46
2021/06/05 06:20:49;;;;;;;6.70;5.93;;;18.90;87.60;;;;;;5047212;28;20779;-46
2021/06/05 06:23:25;;;;;;;6.93;6.23;;;18.90;87.70;;;;;;5042883;28;20467;-45
2021/06/05 06:25:54;;;;;;;8.13;7.00;;;18.90;87.80;;;;;;5047923;28;20985;-45
2021/06/05 06:28:27;;;;;;;8.20;6.87;;;18.90;87.50;;;;;;5046230;28;20827;-45
2021/06/05 06:30:56;;;;;;;6.63;6.00;;;18.90;87.30;;;;;;5048528;28;20819;-45
2021/06/05 06:33:25;;;;;;;7.33;6.63;;;18.90;87.40;;;;;;5043153;28;20486;-45
2021/06/05 06:35:56;;;;;;;9.97;5.77;;;18.90;87.30;;;;;;5042543;28;20452;-45
2021/06/05 06:38:38;;;;;;;7.00;6.30;;;19.00;87.50;;;;;;5046693;28;20478;-45
2021/06/05 06:41:13;;;;;;;7.67;6.83;;;19.00;87.20;;;;;;5041860;28;20463;-45
2021/06/05 06:43:41;;;;;;;7.40;6.70;;;19.00;86.70;;;;;;5045841;28;20466;-45
2021/06/05 06:46:17;;;;;;;7.37;6.70;;;19.00;87.00;;;;;;5042403;28;20857;-45
2021/06/05 06:48:45;;;;;;;7.50;6.83;;;19.00;87.20;;;;;;5048721;28;20861;-45
2021/06/05 06:51:13;;;;;;;10.10;7.60;;;19.00;87.20;;;;;;5045341;28;20470;-45
2021/06/05 06:53:41;;;;;;;8.60;7.53;;;18.90;87.50;;;;;;5045438;28;21074;-45
2021/06/05 06:56:10;;;;;;;8.60;7.70;;;19.00;87.50;;;;;;5042945;28;20454;-45
2021/06/05 06:58:38;;;;;;;8.57;7.67;;;19.00;87.50;;;;;;5043444;28;20459;-45
2021/06/05 07:01:07;;;;;;;8.33;7.40;;;19.00;87.70;;;;;;5046221;28;20458;-45
2021/06/05 07:03:35;;;;;;;8.53;7.53;;;19.00;87.70;;;;;;5043253;28;20452;-46
2021/06/05 07:06:04;;;;;;;9.40;8.40;;;19.10;87.10;;;;;;5042889;28;20451;-45
2021/06/05 07:08:34;;;;;;;8.43;7.63;;;19.10;86.90;;;;;;5043435;28;20500;-45
2021/06/05 07:11:06;;;;;;;9.27;7.53;;;19.00;86.90;;;;;;5046940;28;20465;-45
2021/06/05 07:13:35;;;;;;;8.57;7.77;;;19.10;86.50;;;;;;5042307;28;20807;-45
2021/06/05 07:16:04;;;;;;;8.63;7.50;;;19.10;86.60;;;;;;5047378;28;20466;-45
2021/06/05 07:18:33;;;;;;;9.57;7.43;;;19.10;86.60;;;;;;5044835;28;20512;-45
2021/06/05 07:21:03;;;;;;;9.10;8.30;;;19.20;86.70;;;;;;5042398;28;21709;-45
2021/06/05 07:23:33;;;;;;;13.67;8.83;;;19.20;86.50;;;;;;5042628;28;20455;-45
2021/06/05 07:26:05;;;;;;;9.80;8.90;;;19.30;86.00;;;;;;5043454;28;20822;-45
2021/06/05 07:28:40;;;;;;;9.77;8.67;;;19.30;86.00;;;;;;5039291;28;20467;-45
2021/06/05 07:31:09;;;;;;;9.50;8.60;;;19.30;85.90;;;;;;5042729;28;20465;-45
2021/06/05 07:33:37;;;;;;;9.20;7.50;;;19.40;86.30;;;;;;5043288;28;20967;-46
2021/06/05 07:36:06;;;;;;;10.13;7.60;;;19.50;86.10;;;;;;5043687;28;20955;-46
2021/06/05 07:38:34;;;;;;;8.33;7.53;;;19.60;85.60;;;;;;5041967;28;20464;-46
2021/06/05 07:41:02;;;;;;;8.20;7.40;;;19.70;85.30;;;;;;5042227;28;20460;-46
2021/06/05 07:43:31;;;;;;;8.90;8.00;;;19.80;85.30;;;;;;5040145;28;20447;-46
2021/06/05 07:46:00;;;;;;;8.43;7.63;;;19.90;85.00;;;;;;5041972;28;20467;-46
2021/06/05 07:48:29;;;;;;;7.67;6.97;;;20.00;84.90;;;;;;5040299;28;20584;-46
2021/06/05 07:50:58;;;;;;;7.97;7.27;;;20.10;85.00;;;;;;5043069;28;20986;-47
2021/06/05 07:53:27;;;;;;;8.80;8.00;;;20.20;84.90;;;;;;5045036;28;20478;-46
2021/06/05 07:55:55;;;;;;;8.10;7.30;;;20.40;84.30;;;;;;5042758;28;20511;-46
2021/06/05 07:58:23;;;;;;;8.43;7.57;;;20.50;84.30;;;;;;5039230;28;20463;-46
2021/06/05 08:00:51;;;;;;;8.00;7.30;;;20.60;84.30;;;;;;5047503;28;20465;-47
2021/06/05 08:03:19;;;;;;;6.40;5.80;;;20.70;84.00;;;;;;5040718;28;20446;-47
2021/06/05 08:05:47;;;;;;;6.33;5.73;;;20.90;83.80;;;;;;5042937;28;20447;-47
2021/06/05 08:08:15;;;;;;;8.30;5.77;;;21.00;83.30;;;;;;5039854;28;20479;-46
2021/06/05 08:10:45;;;;;;;4.57;4.03;;;21.20;82.80;;;;;;5045082;28;21056;-47
2021/06/05 08:13:13;;;;;;;4.80;3.77;;;21.40;81.30;;;;;;5044323;28;20443;-47
2021/06/05 08:15:47;;;;;;;4.83;4.13;;;21.50;80.60;;;;;;5042549;28;20941;-47
2021/06/05 08:18:16;;;;;;;4.40;4.00;;;21.70;80.20;;;;;;5040142;28;20451;-46
2021/06/05 08:21:00;;;;;;;3.70;3.40;;;21.90;79.30;;;;;;5042529;28;20462;-47
2021/06/05 08:23:30;;;;;;;4.40;3.83;;;22.10;79.00;;;;;;5042687;28;20936;-47
2021/06/05 08:25:59;;;;;;;7.37;4.00;;;22.20;78.50;;;;;;5039890;28;20471;-47
2021/06/05 08:28:28;;;;;;;3.90;3.60;;;22.30;78.10;;;;;;5040277;28;20458;-47
2021/06/05 08:30:59;;;;;;;3.33;2.80;;;22.50;77.20;;;;;;5040448;28;20458;-47
2021/06/05 08:33:29;;;;;;;3.97;3.67;;;22.60;75.70;;;;;;5040834;28;20475;-46
2021/06/05 08:35:57;;;;;;;3.80;3.50;;;22.70;75.30;;;;;;5038473;28;20439;-47
2021/06/05 08:38:29;;;;;;;3.70;3.37;;;22.80;75.10;;;;;;5037891;28;20447;-46
2021/06/05 08:41:32;;;;;;;3.67;3.37;;;23.00;74.90;;;;;;5038105;28;20461;-47
2021/06/05 08:44:04;;;;;;;5.07;3.87;;;23.20;73.70;;;;;;5039790;28;20498;-47
2021/06/05 08:46:42;;;;;;;4.00;3.67;;;23.40;73.40;;;;;;5040904;28;20452;-47
2021/06/05 08:49:20;;;;;;;4.00;3.43;;;23.60;72.90;;;;;;5041161;28;20451;-46
2021/06/05 08:52:30;;;;;;;3.60;3.30;;;23.80;72.80;;;;;;5037068;28;20443;-46
2021/06/05 08:55:17;;;;;;;3.67;3.17;;;23.90;71.40;;;;;;5038146;28;20501;-47
2021/06/05 08:58:08;;;;;;;4.83;4.07;;;23.80;71.90;;;;;;5038280;28;20450;-47
2021/06/05 09:00:46;;;;;;;3.33;3.03;;;23.80;72.40;;;;;;5039714;28;20449;-47
2021/06/05 09:03:19;;;;;;;4.60;4.20;;;23.70;72.50;;;;;;5037275;28;20471;-46
2021/06/05 09:05:52;;;;;;;5.40;3.70;;;23.60;72.60;;;;;;5040366;28;20458;-46
2021/06/05 09:08:22;;;;;;;5.50;3.80;;;23.60;72.00;;;;;;5041935;28;20491;-46
2021/06/05 09:11:10;;;;;;;3.97;3.67;;;23.50;72.20;;;;;;5044733;28;20461;-46
2021/06/05 09:13:39;;;;;;;3.87;3.60;;;23.50;72.90;;;;;;5041268;28;20459;-44
2021/06/05 09:16:22;;;;;;;3.70;3.40;;;23.50;73.50;;;;;;5039567;28;20450;-46
2021/06/05 09:19:27;;;;;;;4.50;4.10;;;23.40;74.00;;;;;;5042522;28;20446;-46
2021/06/05 09:22:18;;;;;;;4.20;3.80;;;23.30;74.30;;;;;;5040504;28;20459;-46
2021/06/05 09:24:58;;;;;;;6.50;4.23;;;23.20;74.60;;;;;;5038779;28;20445;-46
2021/06/05 09:27:32;;;;;;;4.63;4.23;;;23.10;74.60;;;;;;5039979;28;20454;-46
2021/06/05 09:30:21;;;;;;;4.57;4.17;;;23.10;74.20;;;;;;5041069;28;20470;-46
2021/06/05 09:32:50;;;;;;;4.67;4.27;;;23.10;75.80;;;;;;5043081;28;20636;-46
2021/06/05 09:35:24;;;;;;;4.87;4.40;;;23.00;76.10;;;;;;5039282;28;20483;-46
2021/06/05 09:38:11;;;;;;;4.20;3.90;;;22.90;76.20;;;;;;5040321;28;20918;-46
2021/06/05 09:40:53;;;;;;;5.63;4.93;;;22.80;76.70;;;;;;5037970;28;20471;-46
2021/06/05 09:43:26;;;;;;;5.60;5.10;;;22.70;76.90;;;;;;5041638;28;20568;-46
2021/06/05 09:46:11;;;;;;;5.07;4.60;;;22.70;77.20;;;;;;5038220;28;20477;-46
2021/06/05 09:48:46;;;;;;;4.17;3.87;;;22.60;77.40;;;;;;5042535;28;21280;-46
2021/06/05 09:51:38;;;;;;;4.47;4.07;;;22.50;77.20;;;;;;5040805;28;20501;-46
2021/06/05 09:54:13;;;;;;;4.27;3.90;;;22.50;76.70;;;;;;5038654;28;20574;-46
2021/06/05 09:56:45;;;;;;;6.07;3.70;;;22.50;76.90;;;;;;5038412;28;20447;-46
2021/06/05 09:59:16;;;;;;;4.93;3.97;;;22.50;76.90;;;;;;5040007;28;20458;-46
2021/06/05 10:02:09;;;;;;;3.80;3.50;;;22.50;77.10;;;;;;5043495;28;20473;-45
2021/06/05 10:04:40;;;;;;;3.60;3.30;;;22.50;76.50;;;;;;5038488;28;20466;-46
2021/06/05 10:07:27;;;;;;;7.03;3.50;;;22.50;75.90;;;;;;5036358;28;20481;-46
2021/06/05 10:10:23;;;;;;;4.13;3.73;;;22.50;76.10;;;;;;5041201;28;20470;-46
2021/06/05 10:12:53;;;;;;;3.80;3.50;;;22.60;75.90;;;;;;5040724;28;20974;-46
2021/06/05 10:15:38;;;;;;;3.50;3.30;;;22.60;75.70;;;;;;5041209;28;20487;-46
2021/06/05 10:18:17;;;;;;;5.13;3.80;;;22.60;75.50;;;;;;5039765;28;20925;-46
2021/06/05 10:20:58;;;;;;;3.60;3.10;;;22.60;75.80;;;;;;5043208;28;20447;-46
2021/06/05 10:23:40;;;;;;;5.23;3.93;;;22.60;76.30;;;;;;5039612;28;20471;-46
2021/06/05 10:26:33;;;;;;;4.57;4.00;;;22.60;76.10;;;;;;5043918;28;20450;-46
2021/06/05 10:29:44;;;;;;;4.40;3.70;;;22.60;76.80;;;;;;5039628;28;20505;-46
2021/06/05 10:32:20;;;;;;;4.47;3.67;;;22.50;76.90;;;;;;5045122;28;20501;-46
2021/06/05 10:34:53;;;;;;;5.10;3.50;;;22.40;77.00;;;;;;5039707;28;21120;-46
2021/06/05 10:37:26;;;;;;;3.37;3.07;;;22.40;77.10;;;;;;5039140;28;20447;-46
2021/06/05 10:39:56;;;;;;;5.00;4.53;;;22.30;77.30;;;;;;5043858;28;21189;-46
2021/06/05 10:42:47;;;;;;;4.87;4.47;;;22.30;77.70;;;;;;5044971;28;20448;-46
2021/06/05 10:45:25;;;;;;;6.10;5.30;;;22.30;78.40;;;;;;5036572;28;20468;-46
2021/06/05 10:48:01;;;;;;;6.10;5.50;;;22.30;78.50;;;;;;5041988;28;20451;-46
2021/06/05 10:50:36;;;;;;;5.93;5.53;;;22.40;78.90;;;;;;5044254;28;20958;-46
2021/06/05 10:53:22;;;;;;;5.43;4.90;;;22.40;79.10;;;;;;5041316;28;20446;-46
2021/06/05 10:55:54;;;;;;;5.00;4.60;;;22.50;79.00;;;;;;5043052;28;20497;-47
2021/06/05 10:58:44;;;;;;;4.50;4.20;;;22.50;78.70;;;;;;5040257;28;20469;-47
2021/06/05 11:01:29;;;;;;;5.00;4.53;;;22.60;78.50;;;;;;5044951;28;20462;-46
2021/06/05 11:04:05;;;;;;;4.60;4.23;;;22.70;77.90;;;;;;5048217;28;20855;-47
2021/06/05 11:07:02;;;;;;;3.77;3.43;;;22.90;77.40;;;;;;5045723;28;20496;-46
2021/06/05 11:09:32;;;;;;;2.80;2.60;;;23.00;76.60;;;;;;5041768;28;20474;-46
2021/06/05 11:12:28;;;;;;;5.57;3.20;;;23.10;75.90;;;;;;5044067;28;20537;-46
2021/06/05 11:14:57;;;;;;;4.30;3.90;;;23.30;76.00;;;;;;5030263;28;20569;-46
2021/06/05 11:17:28;;;;;;;3.90;3.50;;;23.50;74.60;;;;;;5042886;28;20463;-46
2021/06/05 11:20:07;;;;;;;3.70;3.03;;;23.60;73.20;;;;;;5043707;28;20454;-46
2021/06/05 11:22:51;;;;;;;3.90;3.60;;;23.60;73.50;;;;;;5038322;28;20481;-46
2021/06/05 11:25:30;;;;;;;4.20;3.20;;;23.70;73.30;;;;;;5044390;28;20455;-46
2021/06/05 11:28:21;;;;;;;4.37;4.00;;;23.70;72.70;;;;;;5044943;28;20470;-46
2021/06/05 11:30:50;;;;;;;4.77;4.30;;;23.70;72.60;;;;;;5040343;28;20809;-47
2021/06/05 11:33:54;;;;;;;4.73;4.33;;;23.70;72.70;;;;;;5041774;28;20462;-46
2021/06/05 11:36:48;;;;;;;3.90;3.60;;;23.80;73.30;;;;;;4950280;28;21062;-46
2021/06/05 11:39:22;;;;;;;5.43;4.13;;;23.80;73.40;;;;;;5044506;28;20500;-47
2021/06/05 11:41:55;;;;;;;4.57;4.17;;;23.80;73.10;;;;;;5043987;28;20475;-47
2021/06/05 11:44:38;;;;;;;4.50;4.10;;;23.80;73.00;;;;;;5039349;28;20450;-46
2021/06/05 11:47:18;;;;;;;4.50;4.17;;;23.80;73.00;;;;;;5042032;28;20438;-47
2021/06/05 11:50:11;;;;;;;8.03;5.03;;;23.80;72.80;;;;;;5042140;28;20523;-46
2021/06/05 11:52:39;;;;;;;4.13;3.73;;;23.80;72.20;;;;;;5039894;28;20453;-46
2021/06/05 11:55:07;;;;;;;4.30;4.00;;;23.90;72.40;;;;;;5040132;28;20489;-46
2021/06/05 11:57:40;;;;;;;3.63;3.33;;;23.90;72.50;;;;;;5040594;28;20451;-46
2021/06/05 12:00:18;;;;;;;3.73;3.43;;;24.00;72.20;;;;;;5039629;28;20453;-47
2021/06/05 12:02:53;;;;;;;4.03;3.73;;;24.10;72.40;;;;;;5041670;28;20449;-46
2021/06/05 12:05:31;;;;;;;8.33;4.53;;;24.20;71.40;;;;;;5044089;28;20499;-46
2021/06/05 12:07:59;;;;;;;4.03;3.63;;;24.20;71.20;;;;;;5042387;28;20509;-46
2021/06/05 12:10:36;;;;;;;4.50;4.10;;;24.30;71.30;;;;;;5036212;28;20465;-46
2021/06/05 12:13:16;;;;;;;3.83;3.40;;;24.30;70.20;;;;;;5041459;28;20473;-46
2021/06/05 12:15:44;;;;;;;3.60;3.40;;;24.30;70.70;;;;;;5039585;28;20478;-47
2021/06/05 12:18:27;;;;;;;4.57;4.17;;;24.40;69.20;;;;;;5040172;28;20470;-46
2021/06/05 12:21:03;;;;;;;4.37;3.97;;;24.40;70.10;;;;;;5045661;28;20453;-46
2021/06/05 12:23:41;;;;;;;4.77;4.40;;;24.50;69.80;;;;;;5034904;28;20966;-46
2021/06/05 12:26:17;;;;;;;3.77;3.47;;;24.50;69.10;;;;;;5042428;28;20462;-46
2021/06/05 12:28:48;;;;;;;4.63;4.23;;;24.40;69.40;;;;;;5039854;28;20462;-46
2021/06/05 12:31:41;;;;;;;4.23;3.87;;;24.40;69.30;;;;;;5036157;28;20785;-46
2021/06/05 12:34:33;;;;;;;4.10;3.80;;;24.30;70.60;;;;;;5041327;28;21238;-46
2021/06/05 12:37:18;;;;;;;3.90;3.67;;;24.30;71.20;;;;;;5040712;28;20454;-46
2021/06/05 12:39:45;;;;;;;5.97;3.70;;;24.30;70.40;;;;;;5038858;28;20445;-46
2021/06/05 12:42:26;;;;;;;6.90;4.73;;;24.20;70.50;;;;;;5038628;28;20461;-46
2021/06/05 12:45:00;;;;;;;4.33;3.93;;;24.20;69.90;;;;;;5039478;28;20457;-46
2021/06/05 12:47:31;;;;;;;4.40;4.00;;;24.20;70.20;;;;;;5043673;28;20462;-46
2021/06/05 12:50:01;;;;;;;5.90;3.60;;;24.20;70.50;;;;;;5036356;28;20467;-46
2021/06/05 12:52:31;;;;;;;4.77;3.70;;;24.10;70.60;;;;;;5039956;28;20465;-46
2021/06/05 12:55:22;;;;;;;3.87;3.57;;;24.10;70.40;;;;;;5041728;28;21045;-46
2021/06/05 12:57:55;;;;;;;4.10;3.80;;;24.20;70.80;;;;;;5041189;28;20450;-46
2021/06/05 13:00:30;;;;;;;4.53;4.13;;;24.30;70.70;;;;;;5041075;28;20473;-45
2021/06/05 13:03:08;;;;;;;4.20;3.80;;;24.30;69.70;;;;;;5038244;28;21037;-45
2021/06/05 13:05:40;;;;;;;5.50;4.20;;;24.30;69.90;;;;;;5038683;28;20473;-45
2021/06/05 13:08:29;;;;;;;4.90;3.90;;;24.40;70.60;;;;;;5042776;28;21024;-45
2021/06/05 13:11:00;;;;;;;4.23;3.93;;;24.40;69.50;;;;;;5039301;28;20553;-45
2021/06/05 13:14:06;;;;;;;7.27;4.10;;;24.30;69.90;;;;;;5043882;28;20517;-45
2021/06/05 13:16:34;;;;;;;5.13;4.47;;;24.20;70.70;;;;;;5043661;28;20998;-45
2021/06/05 13:19:22;;;;;;;4.80;4.10;;;24.00;71.60;;;;;;5044318;28;20485;-46
2021/06/05 13:22:15;;;;;;;5.33;4.77;;;23.80;72.10;;;;;;5039535;28;20469;-45